Time;durP1;ratioP1;P1;durP2;ratioP2;P2;SDS_P1;SDS_P2;PMS_P1;PMS_P2;Temp;Humidity;BMP_temperature;BMP_pressure;BME280_temperature;BME280_humidity;BME280_pressure;Samples;Min_cycle;Max_cycle;Signal;HPM_P1;HPM_P2
2022/10/07 00:00:15;;;;;;;4.20;1.47;;;9.40;99.90;8.70;101533;;;;570245;248;24171;-83
2022/10/07 00:02:40;;;;;;;9.40;2.33;;;9.50;99.90;8.70;101543;;;;570682;248;24102;-82
2022/10/07 00:05:08;;;;;;;5.10;1.30;;;9.40;99.90;8.70;101542;;;;570272;248;24098;-83
2022/10/07 00:07:36;;;;;;;4.33;1.67;;;9.40;99.90;8.70;101541;;;;570006;248;24142;-83
2022/10/07 00:10:06;;;;;;;4.63;1.57;;;9.40;99.90;8.60;101540;;;;570115;248;24175;-83
2022/10/07 00:12:32;;;;;;;4.50;1.60;;;9.40;99.90;8.60;101540;;;;578591;244;24098;-83
2022/10/07 00:14:59;;;;;;;6.90;1.60;;;9.30;99.90;8.60;101546;;;;570136;248;24202;-83
2022/10/07 00:17:27;;;;;;;2.03;1.20;;;9.30;99.90;8.50;101535;;;;570056;248;24122;-83
2022/10/07 00:19:56;;;;;;;5.53;1.53;;;9.30;99.90;8.50;101535;;;;569966;248;24162;-82
2022/10/07 00:22:24;;;;;;;4.53;1.70;;;9.20;99.90;8.50;101538;;;;569897;248;24142;-82
2022/10/07 00:24:52;;;;;;;4.73;1.33;;;9.20;99.90;8.50;101528;;;;569870;248;24173;-83
2022/10/07 00:27:20;;;;;;;4.93;2.03;;;9.20;99.90;8.40;101530;;;;578539;247;24215;-83
2022/10/07 00:29:48;;;;;;;3.50;1.50;;;9.20;99.90;8.40;101525;;;;569770;248;24131;-83
2022/10/07 00:32:16;;;;;;;5.20;1.93;;;9.10;99.90;8.40;101522;;;;569872;248;24103;-83
2022/10/07 00:34:47;;;;;;;7.23;2.30;;;9.10;99.90;8.30;101522;;;;569821;248;24088;-81
2022/10/07 00:37:11;;;;;;;2.83;1.87;;;9.10;99.90;8.30;101525;;;;569164;248;24098;-82
2022/10/07 00:39:39;;;;;;;7.17;1.67;;;9.00;99.90;8.30;101525;;;;569815;248;24095;-83
2022/10/07 00:42:11;;;;;;;5.57;1.83;;;9.00;99.90;8.20;101521;;;;570206;248;24102;-83
2022/10/07 00:44:42;;;;;;;6.87;1.30;;;8.90;99.90;8.10;101530;;;;569701;248;24117;-83
2022/10/07 00:47:28;;;;;;;2.07;1.40;;;8.80;99.90;8.10;101526;;;;570135;248;24098;-83
2022/10/07 00:50:05;;;;;;;2.90;1.33;;;8.80;99.90;7.90;101519;;;;570059;248;24100;-84
2022/10/07 00:52:33;;;;;;;3.67;1.57;;;8.80;99.90;7.90;101525;;;;570143;248;24093;-80
2022/10/07 00:55:01;;;;;;;5.07;1.53;;;8.70;99.90;7.80;101524;;;;569614;248;24150;-80
2022/10/07 00:57:29;;;;;;;7.57;1.50;;;8.60;99.90;7.80;101524;;;;572614;248;24138;-80
2022/10/07 00:59:59;;;;;;;3.47;1.40;;;8.50;99.90;7.70;101521;;;;573216;246;24105;-80
2022/10/07 01:02:24;;;;;;;9.77;1.83;;;8.50;99.90;7.60;101514;;;;570741;248;24095;-80
2022/10/07 01:04:52;;;;;;;2.53;1.40;;;8.40;99.90;7.60;101515;;;;579357;248;24095;-80
2022/10/07 01:07:20;;;;;;;3.03;1.10;;;8.40;99.90;7.50;101500;;;;570442;248;24083;-80
2022/10/07 01:09:51;;;;;;;2.93;1.73;;;8.30;99.90;7.40;101504;;;;578825;248;24131;-79
2022/10/07 01:12:31;;;;;;;5.43;1.50;;;8.20;99.90;7.40;101506;;;;573114;248;24131;-81
2022/10/07 01:15:23;;;;;;;3.97;1.17;;;8.10;99.90;7.30;101502;;;;572984;248;24118;-80
2022/10/07 01:18:06;;;;;;;2.43;1.70;;;8.00;99.90;7.30;101502;;;;570003;248;24099;-79
2022/10/07 01:20:44;;;;;;;2.37;1.67;;;8.00;99.90;7.20;101496;;;;569908;248;24102;-80
2022/10/07 01:23:26;;;;;;;1.70;1.40;;;8.00;99.90;7.20;101499;;;;578428;248;24151;-80
2022/10/07 01:26:21;;;;;;;2.83;1.43;;;8.00;99.90;7.20;101494;;;;570346;248;24100;-79
2022/10/07 01:28:57;;;;;;;6.77;1.90;;;8.00;99.90;7.20;101491;;;;578992;248;24093;-80
2022/10/07 01:31:25;;;;;;;4.83;1.73;;;8.00;99.90;7.10;101490;;;;570631;248;24105;-82
2022/10/07 01:33:53;;;;;;;10.70;1.90;;;7.90;99.90;7.10;101486;;;;578625;248;24097;-80
2022/10/07 01:36:23;;;;;;;4.40;1.37;;;7.90;99.90;7.10;101482;;;;577863;248;24161;-79
2022/10/07 01:38:49;;;;;;;5.97;1.60;;;7.90;99.90;7.10;101488;;;;572933;248;24107;-80
2022/10/07 01:41:16;;;;;;;7.63;1.70;;;7.90;99.90;7.10;101482;;;;578472;247;24110;-79
2022/10/07 01:43:44;;;;;;;1.47;1.30;;;7.90;99.90;7.10;101480;;;;578316;248;24157;-79
2022/10/07 01:46:13;;;;;;;2.53;1.73;;;7.80;99.90;7.00;101479;;;;577375;248;24153;-78
2022/10/07 01:48:41;;;;;;;5.70;1.80;;;7.80;99.90;7.00;101484;;;;572541;248;24088;-79
2022/10/07 01:51:09;;;;;;;2.47;1.50;;;7.80;99.90;7.00;101482;;;;569699;248;24086;-79
2022/10/07 01:54:01;;;;;;;3.83;2.07;;;7.80;99.90;7.00;101488;;;;569566;248;24090;-79
2022/10/07 01:57:09;;;;;;;7.65;2.10;;;7.80;99.90;7.00;101483;;;;573293;248;46131;-79
2022/10/07 01:59:55;;;;;;;4.50;1.87;;;7.80;99.90;7.00;101483;;;;569399;248;24099;-80
2022/10/07 02:02:32;;;;;;;5.17;2.07;;;7.80;99.90;7.00;101481;;;;578156;248;24082;-81
2022/10/07 02:05:20;;;;;;;1.87;1.57;;;7.80;99.90;7.00;101473;;;;568867;248;24141;-80
2022/10/07 02:08:12;;;;;;;3.50;1.97;;;7.80;99.90;7.00;101477;;;;574474;248;24106;-82
2022/10/07 02:11:04;;;;;;;2.10;1.87;;;7.80;99.90;7.00;101477;;;;578713;247;24137;-82
2022/10/07 02:14:11;;;;;;;1.67;1.53;;;7.80;99.90;6.90;101469;;;;571227;248;24082;-82
2022/10/07 02:16:48;;;;;;;2.53;1.37;;;7.70;99.90;6.90;101477;;;;570891;248;24129;-83
2022/10/07 02:19:22;;;;;;;8.87;1.80;;;7.70;99.90;6.80;101467;;;;554846;258;24201;-81
2022/10/07 02:21:51;;;;;;;4.30;1.70;;;7.60;99.90;6.80;101466;;;;570217;248;24110;-83
2022/10/07 02:24:18;;;;;;;10.67;2.17;;;7.60;99.90;6.80;101462;;;;573325;248;24094;-83
2022/10/07 02:26:46;;;;;;;2.63;1.60;;;7.60;99.90;6.70;101463;;;;578022;247;24235;-82
2022/10/07 02:29:14;;;;;;;4.37;1.97;;;7.60;99.90;6.70;101472;;;;573296;248;24229;-80
2022/10/07 02:31:42;;;;;;;3.30;1.70;;;7.60;99.90;6.70;101473;;;;569957;248;24147;-83
2022/10/07 02:34:10;;;;;;;6.93;1.73;;;7.50;99.90;6.70;101472;;;;572938;248;24124;-81
2022/10/07 02:36:38;;;;;;;3.20;1.80;;;7.50;99.90;6.60;101469;;;;578253;248;24119;-82
2022/10/07 02:39:09;;;;;;;6.53;2.30;;;7.50;99.90;6.60;101466;;;;573139;248;24092;-80
2022/10/07 02:41:40;;;;;;;6.57;1.90;;;7.40;99.90;6.50;101465;;;;578303;248;24130;-80
2022/10/07 02:44:12;;;;;;;2.10;1.57;;;7.40;99.90;6.50;101463;;;;570088;248;24127;-78
2022/10/07 02:46:53;;;;;;;3.43;2.23;;;7.30;99.90;6.40;101469;;;;579029;248;24145;-79
2022/10/07 02:49:22;;;;;;;8.10;2.30;;;7.20;99.90;6.40;101462;;;;570051;248;24107;-79
2022/10/07 02:52:00;;;;;;;4.30;1.63;;;7.20;99.90;6.30;101456;;;;573191;248;24144;-79
2022/10/07 02:54:33;;;;;;;8.53;2.50;;;7.10;99.90;6.30;101460;;;;570061;248;24104;-83
2022/10/07 02:57:00;;;;;;;3.33;2.10;;;7.10;99.90;6.20;101466;;;;572909;248;24147;-81
2022/10/07 02:59:28;;;;;;;6.43;2.57;;;7.00;99.90;6.20;101456;;;;572882;248;24106;-79
2022/10/07 03:01:57;;;;;;;5.10;2.60;;;6.90;99.90;6.10;101458;;;;572759;248;24103;-80
2022/10/07 03:04:25;;;;;;;9.37;2.90;;;6.90;99.90;6.10;101452;;;;572861;248;24099;-80
2022/10/07 03:06:53;;;;;;;8.93;2.83;;;6.90;99.90;6.10;101456;;;;569641;248;24079;-80
2022/10/07 03:09:21;;;;;;;4.83;2.33;;;6.90;99.90;6.00;101453;;;;573027;248;24101;-82
2022/10/07 03:11:49;;;;;;;8.33;2.60;;;6.90;99.90;6.00;101459;;;;578998;248;24094;-81
2022/10/07 03:14:17;;;;;;;8.47;2.87;;;6.90;99.90;6.00;101453;;;;570192;248;24102;-81
2022/10/07 03:16:45;;;;;;;8.13;2.63;;;6.80;99.90;6.00;101455;;;;570756;248;24060;-81
2022/10/07 03:19:13;;;;;;;7.63;2.90;;;6.80;99.90;6.00;101460;;;;570559;248;24188;-82
2022/10/07 03:21:41;;;;;;;5.73;3.17;;;6.90;99.90;6.00;101471;;;;570340;248;24090;-82
2022/10/07 03:24:10;;;;;;;8.03;3.20;;;6.90;99.90;6.10;101456;;;;571257;248;24089;-81
2022/10/07 03:26:38;;;;;;;5.97;2.70;;;6.90;99.90;6.10;101459;;;;571269;248;24079;-82
2022/10/07 03:29:10;;;;;;;5.10;2.63;;;6.90;99.90;6.00;101460;;;;570845;248;24075;-81
2022/10/07 03:31:35;;;;;;;10.10;3.27;;;6.80;99.90;6.00;101463;;;;570644;248;24134;-82
2022/10/07 03:34:03;;;;;;;8.27;3.07;;;6.80;99.90;6.00;101452;;;;570701;248;24115;-81
2022/10/07 03:36:30;;;;;;;10.10;2.93;;;6.80;99.90;6.00;101458;;;;570592;248;24226;-80
2022/10/07 03:38:58;;;;;;;5.93;2.73;;;6.80;99.90;5.90;101457;;;;570619;248;24151;-80
2022/10/07 03:41:26;;;;;;;6.03;2.60;;;6.80;99.90;6.00;101457;;;;570530;248;25109;-83
2022/10/07 03:43:56;;;;;;;4.73;3.17;;;6.80;99.90;5.90;101465;;;;570378;248;24098;-82
2022/10/07 03:46:22;;;;;;;10.77;3.07;;;6.70;99.90;6.00;101456;;;;570055;248;24129;-82
2022/10/07 03:48:51;;;;;;;4.50;3.10;;;6.80;99.90;5.90;101453;;;;569985;248;24172;-82
2022/10/07 03:51:18;;;;;;;6.73;2.83;;;6.80;99.90;5.90;101451;;;;570354;248;24126;-83
2022/10/07 03:53:46;;;;;;;3.73;2.83;;;6.70;99.90;5.90;101450;;;;569947;248;24114;-80
2022/10/07 03:56:14;;;;;;;6.83;3.70;;;6.70;99.90;5.80;101455;;;;569713;248;24129;-81
2022/10/07 03:58:42;;;;;;;6.70;2.80;;;6.70;99.90;5.80;101448;;;;569960;248;24199;-82
2022/10/07 04:01:12;;;;;;;8.87;2.97;;;6.60;99.90;5.80;101456;;;;569915;248;24138;-82
2022/10/07 04:03:39;;;;;;;8.30;3.70;;;6.60;99.90;5.80;101448;;;;573110;248;24118;-82
2022/10/07 04:06:10;;;;;;;9.60;3.67;;;6.60;99.90;5.80;101453;;;;569982;248;24102;-82
2022/10/07 04:08:36;;;;;;;8.97;3.27;;;6.60;99.90;5.80;101454;;;;569985;247;24148;-82
2022/10/07 04:11:06;;;;;;;5.20;3.03;;;6.60;99.90;5.80;101454;;;;569973;248;24084;-82
2022/10/07 04:13:32;;;;;;;8.03;3.17;;;6.60;99.90;5.80;101452;;;;567817;246;24099;-83
2022/10/07 04:15:59;;;;;;;12.70;3.73;;;6.60;99.90;5.80;101449;;;;569972;248;24113;-83
2022/10/07 04:18:27;;;;;;;9.53;3.90;;;6.60;99.90;5.80;101454;;;;572708;248;24112;-82
2022/10/07 04:20:55;;;;;;;6.83;3.53;;;6.60;99.90;5.80;101443;;;;569996;248;24105;-83
2022/10/07 04:23:23;;;;;;;8.80;4.17;;;6.60;99.90;5.70;101453;;;;573014;248;24118;-83
2022/10/07 04:25:52;;;;;;;9.97;3.30;;;6.50;99.90;5.70;101450;;;;570237;248;24087;-83
2022/10/07 04:28:25;;;;;;;9.27;3.60;;;6.50;99.90;5.70;101451;;;;570028;248;24097;-84
2022/10/07 04:30:50;;;;;;;6.20;4.07;;;6.50;99.90;5.70;101439;;;;569570;248;24143;-83
2022/10/07 04:33:22;;;;;;;8.27;3.77;;;6.50;99.90;5.70;101443;;;;569936;248;24100;-83
2022/10/07 04:35:50;;;;;;;10.83;3.77;;;6.50;99.90;5.70;101436;;;;570706;248;24089;-82
2022/10/07 04:38:18;;;;;;;9.57;3.50;;;6.50;99.90;5.70;101441;;;;574154;248;24103;-81
2022/10/07 04:40:46;;;;;;;8.27;3.80;;;6.50;99.90;5.70;101439;;;;570754;248;24087;-84
2022/10/07 04:43:19;;;;;;;16.50;5.87;;;6.50;99.90;5.60;101441;;;;573984;248;25155;-82
2022/10/07 04:45:51;;;;;;;10.47;3.43;;;6.40;99.90;5.60;101444;;;;570515;248;24197;-83
2022/10/07 04:48:18;;;;;;;7.90;3.67;;;6.40;99.90;5.60;101440;;;;568007;248;24150;-84
2022/10/07 04:50:46;;;;;;;9.80;4.23;;;6.40;99.90;5.60;101444;;;;574376;248;24199;-83
2022/10/07 04:53:14;;;;;;;12.17;3.87;;;6.40;99.90;5.60;101433;;;;569972;248;24120;-84
2022/10/07 04:55:48;;;;;;;7.93;3.60;;;6.40;99.90;5.60;101434;;;;572994;248;24093;-83
2022/10/07 04:58:16;;;;;;;10.87;4.30;;;6.40;99.90;5.60;101434;;;;569773;248;24212;-83
2022/10/07 05:00:47;;;;;;;13.67;4.10;;;6.40;99.90;5.60;101440;;;;569982;248;24141;-82
2022/10/07 05:03:15;;;;;;;9.27;4.10;;;6.40;99.90;5.60;101442;;;;570247;248;24238;-81
2022/10/07 05:05:45;;;;;;;9.90;3.90;;;6.40;99.90;5.60;101436;;;;578779;248;28389;-80
2022/10/07 05:08:13;;;;;;;18.67;7.47;;;6.40;99.90;5.60;101437;;;;570239;248;24121;-81
2022/10/07 05:10:41;;;;;;;16.90;4.97;;;6.40;99.90;5.60;101438;;;;573302;248;24110;-84
2022/10/07 05:13:11;;;;;;;17.50;5.30;;;6.40;99.90;5.60;101423;;;;570005;248;25231;-84
2022/10/07 05:15:41;;;;;;;11.43;6.00;;;6.40;99.90;5.60;101429;;;;572966;248;24122;-84
2022/10/07 05:18:06;;;;;;;11.73;5.83;;;6.40;99.90;5.60;101428;;;;569454;248;24122;-84
2022/10/07 05:20:36;;;;;;;9.37;3.77;;;6.40;99.90;5.70;101428;;;;569651;248;24138;-83
2022/10/07 05:23:01;;;;;;;6.10;3.17;;;6.50;99.90;5.70;101426;;;;569473;248;24113;-82
2022/10/07 05:25:29;;;;;;;9.43;3.37;;;6.50;99.90;5.80;101428;;;;569746;248;24124;-82
2022/10/07 05:27:57;;;;;;;10.10;4.55;;;6.60;99.90;5.80;101422;;;;564603;248;35310;-82
2022/10/07 05:30:25;;;;;;;6.23;2.90;;;6.60;99.90;5.90;101434;;;;569771;248;24079;-79
2022/10/07 05:32:54;;;;;;;3.50;3.10;;;6.80;99.90;6.00;101431;;;;569577;248;24090;-82
2022/10/07 05:35:25;;;;;;;9.23;3.13;;;6.70;99.90;6.00;101435;;;;569505;248;24101;-82
2022/10/07 05:37:52;;;;;;;7.77;3.03;;;6.80;99.90;6.10;101435;;;;570210;248;24148;-82
2022/10/07 05:40:20;;;;;;;10.20;2.87;;;6.90;99.90;6.20;101437;;;;572937;248;24081;-82
2022/10/07 05:42:48;;;;;;;3.00;2.43;;;7.00;99.90;6.20;101446;;;;569906;248;24204;-81
2022/10/07 05:45:16;;;;;;;7.37;3.43;;;7.00;99.90;6.30;101443;;;;569681;248;24100;-81
2022/10/07 05:47:46;;;;;;;5.83;2.70;;;7.10;99.90;6.40;101444;;;;571248;248;24127;-81
2022/10/07 05:50:13;;;;;;;10.10;3.17;;;7.20;99.90;6.40;101450;;;;571010;248;24148;-81
2022/10/07 05:52:44;;;;;;;8.87;3.27;;;7.20;99.90;6.50;101461;;;;579537;247;24112;-81
2022/10/07 05:55:09;;;;;;;12.50;3.33;;;7.30;99.90;6.60;101459;;;;570551;248;24107;-81
2022/10/07 05:57:38;;;;;;;7.90;3.17;;;7.40;99.90;6.70;101456;;;;570566;248;24080;-80
2022/10/07 06:00:05;;;;;;;8.90;3.23;;;7.50;99.90;6.80;101456;;;;570418;248;24118;-81
2022/10/07 06:02:33;;;;;;;14.23;3.73;;;7.60;99.90;6.90;101455;;;;570900;248;24079;-81
2022/10/07 06:05:00;;;;;;;16.73;3.57;;;7.70;99.90;7.00;101457;;;;570385;248;24138;-81
2022/10/07 06:07:28;;;;;;;12.97;3.63;;;7.80;99.90;7.10;101455;;;;570218;248;24095;-81
2022/10/07 06:15:29;;;;;;;9.90;2.97;;;8.20;99.90;7.90;101453;;;;580173;246;24162;-80
2022/10/07 06:17:56;;;;;;;6.10;2.97;;;8.60;99.90;9.00;101458;;;;562501;250;24093;-81
2022/10/07 06:20:24;;;;;;;9.20;3.47;;;9.40;99.90;11.30;101471;;;;569279;249;24144;-81
2022/10/07 06:22:52;;;;;;;11.37;2.77;;;11.30;99.90;13.80;101476;;;;573718;249;24098;-81
2022/10/07 06:25:20;;;;;;;4.07;2.10;;;13.60;99.90;15.70;101481;;;;569472;248;24128;-81
2022/10/07 06:27:48;;;;;;;6.67;3.03;;;15.70;99.90;17.60;101485;;;;567248;248;24134;-81
2022/10/07 06:30:17;;;;;;;7.13;2.40;;;19.40;99.90;19.60;101485;;;;567131;248;24123;-82
2022/10/07 06:32:45;;;;;;;5.67;2.40;;;19.30;99.90;20.90;101480;;;;567231;248;24084;-82
2022/10/07 06:35:13;;;;;;;8.73;2.63;;;20.90;99.90;22.20;101489;;;;567205;248;24179;-83
2022/10/07 06:37:40;;;;;;;5.17;2.17;;;22.30;99.90;23.30;101491;;;;567579;248;24063;-84
2022/10/07 06:40:12;;;;;;;3.77;2.17;;;23.50;99.90;24.50;101497;;;;567236;248;24128;-81
2022/10/07 06:42:36;;;;;;;8.07;2.47;;;24.70;93.30;25.60;101508;;;;577665;248;24143;-84
2022/10/07 06:45:08;;;;;;;8.37;2.30;;;25.70;87.50;26.40;101499;;;;567230;248;23175;-84
2022/10/07 06:47:33;;;;;;;10.30;2.67;;;26.70;78.90;27.40;101504;;;;569458;248;23151;-81
2022/10/07 06:50:02;;;;;;;7.13;2.00;;;28.30;65.10;28.10;101507;;;;567469;248;23129;-84
2022/10/07 06:52:29;;;;;;;8.80;2.33;;;28.20;65.00;28.60;101516;;;;567564;248;23108;-84
2022/10/07 06:54:57;;;;;;;7.97;2.60;;;28.80;62.50;29.20;101508;;;;567558;248;24125;-85
2022/10/07 06:57:25;;;;;;;5.30;2.15;;;29.50;58.60;29.60;101513;;;;569956;248;23104;-83
2022/10/07 06:59:53;;;;;;;9.23;2.50;;;29.90;57.70;30.10;101515;;;;569028;248;24097;-84
2022/10/07 07:02:21;;;;;;;6.70;2.40;;;30.30;56.30;30.60;101531;;;;568587;248;23081;-84
2022/10/07 07:04:48;;;;;;;14.65;2.65;;;30.80;54.20;31.10;101526;;;;568324;248;23101;-84
2022/10/07 07:07:18;;;;;;;13.32;3.65;;;32.00;51.60;31.90;101531;;;;567767;248;23142;-84
2022/10/07 07:09:49;;;;;;;11.30;2.60;;;31.90;51.50;32.10;101529;;;;567740;248;23136;-85
2022/10/07 07:12:18;;;;;;;6.85;2.83;;;32.40;50.90;32.60;101522;;;;570092;248;23108;-81
2022/10/07 07:14:43;;;;;;;5.47;2.35;;;32.80;49.40;32.90;101532;;;;569949;247;23155;-81
2022/10/07 07:17:10;;;;;;;5.57;2.40;;;33.20;48.70;33.20;101538;;;;567438;248;23185;-83
2022/10/07 07:19:41;;;;;;;6.80;2.62;;;33.50;48.10;33.70;101534;;;;548847;258;23274;-85
2022/10/07 07:22:09;;;;;;;3.83;2.28;;;33.90;47.30;34.10;101543;;;;567485;248;24132;-80
2022/10/07 07:24:37;;;;;;;6.25;2.30;;;34.40;46.60;34.30;101539;;;;570040;248;23184;-85
2022/10/07 07:27:05;;;;;;;11.73;3.05;;;34.60;45.30;34.40;101542;;;;567778;248;23109;-82
2022/10/07 07:29:33;;;;;;;4.40;2.25;;;34.70;45.30;34.80;101546;;;;567465;248;23116;-86
2022/10/07 07:32:03;;;;;;;4.87;2.37;;;35.00;44.70;35.10;101546;;;;567687;248;23139;-82
2022/10/07 07:34:29;;;;;;;4.25;2.37;;;35.40;44.10;35.30;101541;;;;567385;248;23117;-85
2022/10/07 07:36:56;;;;;;;4.70;2.65;;;35.60;43.40;35.30;101541;;;;567573;248;23129;-81
2022/10/07 07:39:28;;;;;;;6.40;2.78;;;35.90;43.30;35.50;101549;;;;567436;248;23113;-86
2022/10/07 07:41:58;;;;;;;10.55;2.70;;;36.10;42.80;35.70;101537;;;;567396;248;23101;-87
2022/10/07 07:44:23;;;;;;;7.18;2.15;;;36.40;42.20;36.10;101540;;;;570334;248;24114;-83
2022/10/07 07:46:54;;;;;;;7.32;2.33;;;36.40;42.10;36.40;101532;;;;569663;248;23144;-84
2022/10/07 07:49:23;;;;;;;6.37;2.35;;;36.70;41.80;36.50;101538;;;;570188;248;23123;-83
2022/10/07 07:51:50;;;;;;;7.40;2.85;;;36.90;41.60;36.60;101537;;;;570029;248;24177;-81
2022/10/07 07:54:18;;;;;;;4.43;2.20;;;37.10;41.30;36.90;101532;;;;567531;248;23100;-82
2022/10/07 07:56:46;;;;;;;6.43;2.35;;;37.30;40.90;37.10;101538;;;;570340;248;23101;-84
2022/10/07 07:59:14;;;;;;;4.20;2.40;;;37.50;41.00;37.30;101529;;;;567953;248;23085;-82
2022/10/07 08:01:42;;;;;;;6.70;2.28;;;37.70;40.40;37.40;101529;;;;567946;248;23093;-86
2022/10/07 08:04:10;;;;;;;5.78;2.40;;;37.90;40.10;37.60;101528;;;;570146;248;23092;-82
2022/10/07 08:06:39;;;;;;;8.23;2.45;;;38.10;39.60;37.60;101528;;;;570592;248;23131;-85
2022/10/07 08:09:11;;;;;;;8.35;2.53;;;38.10;39.60;37.70;101528;;;;579164;248;24128;-86
2022/10/07 08:11:36;;;;;;;8.05;2.47;;;38.20;39.30;37.90;101527;;;;580193;247;23162;-83
2022/10/07 08:14:06;;;;;;;3.65;2.00;;;38.50;38.90;38.10;101534;;;;568487;248;23109;-82
2022/10/07 08:16:32;;;;;;;5.75;2.35;;;38.70;38.90;37.60;101530;;;;567916;248;23134;-83
2022/10/07 08:19:03;;;;;;;9.75;2.75;;;38.50;38.70;37.60;101530;;;;568216;248;23133;-87
2022/10/07 08:21:31;;;;;;;8.43;2.28;;;38.40;38.70;37.70;101530;;;;570065;248;23159;-86
2022/10/07 08:23:56;;;;;;;4.20;1.75;;;38.50;38.60;37.80;101538;;;;570457;248;23086;-85
2022/10/07 08:26:27;;;;;;;5.87;2.33;;;38.90;38.00;38.10;101537;;;;570231;248;23189;-85
2022/10/07 08:28:58;;;;;;;6.07;2.17;;;38.80;37.90;38.10;101530;;;;578621;248;23104;-87
2022/10/07 08:31:26;;;;;;;7.18;4.00;;;38.90;37.90;38.20;101529;;;;567473;247;23180;-83
2022/10/07 08:33:50;;;;;;;9.10;2.80;;;38.90;37.90;38.20;101535;;;;567198;248;23120;-84
2022/10/07 08:36:18;;;;;;;7.90;3.05;;;39.10;37.50;38.40;101532;;;;570170;248;24274;-85
2022/10/07 08:38:46;;;;;;;13.32;9.63;;;39.00;37.30;38.50;101530;;;;570160;248;23120;-83
2022/10/07 08:41:53;;;;;;;6.47;4.03;;;39.20;37.30;38.20;101529;;;;568160;248;23090;-83
2022/10/07 08:44:24;;;;;;;7.62;2.78;;;39.20;37.50;38.20;101523;;;;571061;248;23107;-86
2022/10/07 08:47:14;;;;;;;4.87;2.12;;;39.20;37.20;38.20;101517;;;;579018;248;23128;-84
2022/10/07 08:49:56;;;;;;;4.25;2.20;;;39.20;37.10;38.30;101513;;;;570409;248;23113;-83
2022/10/07 08:52:41;;;;;;;7.85;3.50;;;39.30;36.90;38.00;101523;;;;577946;248;23179;-86
2022/10/07 08:55:14;;;;;;;5.03;2.50;;;39.10;37.00;37.80;101517;;;;567613;248;23209;-85
2022/10/07 08:58:03;;;;;;;4.22;2.17;;;39.00;37.20;37.90;101516;;;;578609;248;23098;-82
2022/10/07 09:00:28;;;;;;;5.40;2.42;;;39.00;37.20;38.00;101509;;;;569814;248;23160;-85
2022/10/07 09:03:26;;;;;;;6.93;2.17;;;39.10;36.90;37.90;101509;;;;567737;248;23116;-86
2022/10/07 09:05:57;;;;;;;4.70;2.45;;;39.10;36.60;38.00;101507;;;;578368;248;23128;-83
2022/10/07 09:08:26;;;;;;;5.97;2.03;;;39.10;36.90;37.90;101506;;;;569727;248;23129;-85
2022/10/07 09:10:52;;;;;;;5.70;2.22;;;39.10;36.60;37.10;101508;;;;569563;248;24139;-86
2022/10/07 09:13:24;;;;;;;8.10;2.55;;;38.60;36.70;36.10;101506;;;;569987;248;23144;-87
2022/10/07 09:16:10;;;;;;;7.75;1.95;;;37.70;37.30;34.60;101508;;;;578309;248;23139;-87
2022/10/07 09:18:52;;;;;;;7.05;2.05;;;36.60;38.40;32.70;101497;;;;578403;248;23122;-86
2022/10/07 09:21:22;;;;;;;5.70;2.05;;;34.80;39.80;31.30;101501;;;;579376;246;23123;-82
2022/10/07 09:23:49;;;;;;;7.07;2.72;;;33.30;41.70;30.50;101488;;;;579661;247;23149;-82
2022/10/07 09:26:17;;;;;;;4.43;2.17;;;31.20;44.00;29.70;101487;;;;579256;248;23104;-82
2022/10/07 09:28:45;;;;;;;3.55;2.17;;;31.10;44.00;29.00;101484;;;;568489;248;24130;-85
2022/10/07 09:31:13;;;;;;;6.72;2.12;;;30.40;45.30;28.50;101487;;;;568547;248;23106;-84
2022/10/07 09:33:41;;;;;;;5.12;1.65;;;29.80;46.30;28.00;101477;;;;579636;248;24171;-82
2022/10/07 09:36:09;;;;;;;14.47;3.13;;;29.30;46.70;27.60;101479;;;;570744;248;23133;-81
2022/10/07 09:38:37;;;;;;;5.57;2.10;;;28.90;47.50;27.90;101469;;;;571308;248;23092;-84
2022/10/07 09:41:16;;;;;;;5.57;1.83;;;29.10;47.40;28.50;101470;;;;570980;248;24219;-84
2022/10/07 09:44:02;;;;;;;10.53;2.40;;;29.60;47.80;29.30;101468;;;;570950;248;24105;-84
2022/10/07 09:46:49;;;;;;;11.45;2.25;;;31.00;45.50;29.90;101467;;;;570294;248;23119;-86
2022/10/07 09:49:29;;;;;;;6.50;1.90;;;31.00;45.50;30.20;101467;;;;579557;248;23108;-86
2022/10/07 09:52:15;;;;;;;5.53;2.03;;;31.70;44.20;30.20;101457;;;;571111;248;23129;-83
2022/10/07 09:54:44;;;;;;;6.95;2.50;;;31.60;44.30;30.10;101452;;;;570423;248;24118;-82
2022/10/07 09:57:30;;;;;;;8.60;2.00;;;31.60;43.90;30.10;101442;;;;570565;248;23149;-83
2022/10/07 10:00:16;;;;;;;7.65;2.75;;;31.60;43.90;29.80;101449;;;;579325;247;23144;-86
2022/10/07 10:02:50;;;;;;;8.05;1.58;;;31.40;43.90;29.30;101434;;;;570511;248;23115;-85
2022/10/07 10:05:22;;;;;;;7.22;1.98;;;30.60;45.00;28.90;101430;;;;570289;248;23109;-84
2022/10/07 10:07:49;;;;;;;5.57;2.25;;;30.60;44.90;28.70;101427;;;;568737;248;24196;-85
2022/10/07 10:10:18;;;;;;;5.85;2.08;;;30.00;46.20;28.30;101423;;;;579250;248;23103;-84
2022/10/07 10:12:52;;;;;;;5.37;1.77;;;29.90;46.20;27.60;101427;;;;570913;248;23098;-84
2022/10/07 10:15:26;;;;;;;12.30;2.47;;;29.40;46.80;26.60;101416;;;;571536;248;24070;-81
2022/10/07 10:17:56;;;;;;;5.93;2.07;;;28.50;47.80;25.60;101416;;;;571171;248;23069;-82
2022/10/07 10:20:30;;;;;;;4.77;1.90;;;27.60;48.90;24.70;101413;;;;571422;248;23154;-80
2022/10/07 10:23:02;;;;;;;4.27;1.50;;;26.60;50.70;23.70;101407;;;;570633;248;24171;-80
2022/10/07 10:28:52;;;;;;;3.37;1.70;;;24.50;53.40;21.80;101397;;;;568099;248;24079;-80
2022/10/07 10:32:00;;;;;;;7.83;1.80;;;23.40;55.90;21.00;101391;;;;577313;248;24095;-81
2022/10/07 10:34:55;;;;;;;5.20;1.53;;;22.40;57.80;20.30;101390;;;;569600;248;24118;-80
2022/10/07 10:37:56;;;;;;;7.17;1.60;;;20.70;61.70;19.70;101385;;;;568565;248;24100;-79
2022/10/07 10:40:37;;;;;;;3.60;1.43;;;20.10;63.60;19.20;101381;;;;571280;248;24090;-81
2022/10/07 10:43:29;;;;;;;6.20;1.43;;;20.10;63.60;18.80;101378;;;;571563;248;24090;-78
2022/10/07 10:46:38;;;;;;;4.40;1.10;;;19.60;65.00;18.40;101377;;;;571055;248;24160;-79
2022/10/07 10:49:29;;;;;;;4.27;1.40;;;19.00;66.50;17.90;101373;;;;572426;251;24099;-79
2022/10/07 10:52:01;;;;;;;8.07;1.93;;;18.60;68.40;17.60;101365;;;;572181;251;24094;-83
2022/10/07 10:54:49;;;;;;;11.57;1.53;;;18.20;69.00;17.30;101361;;;;573367;248;24096;-78
2022/10/07 10:57:35;;;;;;;4.77;1.60;;;17.90;70.00;16.90;101356;;;;577177;248;24088;-79
2022/10/07 11:00:19;;;;;;;13.00;2.03;;;17.50;71.70;16.70;101357;;;;578845;248;24096;-80
2022/10/07 11:03:05;;;;;;;6.23;1.63;;;17.20;72.50;16.50;101348;;;;570831;248;24136;-80
2022/10/07 11:05:36;;;;;;;5.83;1.70;;;17.00;73.90;16.30;101336;;;;562617;248;24096;-81
2022/10/07 11:08:10;;;;;;;3.67;1.40;;;16.80;75.30;16.10;101340;;;;579350;248;24114;-81
2022/10/07 11:10:49;;;;;;;4.00;1.30;;;16.60;76.10;16.00;101329;;;;570131;248;25164;-81
2022/10/07 11:13:47;;;;;;;2.70;1.40;;;16.50;76.70;15.90;101331;;;;571021;248;24098;-79
2022/10/07 11:16:25;;;;;;;4.13;1.40;;;16.40;77.00;15.80;101329;;;;571287;248;24111;-79
2022/10/07 11:19:23;;;;;;;3.73;1.27;;;16.30;77.60;15.70;101317;;;;571094;248;23160;-80
2022/10/07 11:21:55;;;;;;;3.53;1.13;;;16.10;78.80;15.60;101321;;;;571604;248;24079;-81
2022/10/07 11:24:26;;;;;;;3.03;1.20;;;16.10;78.80;15.60;101315;;;;579819;248;24145;-84
2022/10/07 11:27:15;;;;;;;5.83;1.27;;;16.00;80.00;15.50;101313;;;;579744;248;24119;-85
2022/10/07 11:29:58;;;;;;;2.03;1.40;;;16.00;79.90;15.50;101319;;;;570069;248;24101;-84
2022/10/07 11:32:37;;;;;;;6.27;1.63;;;16.00;80.70;15.50;101302;;;;579462;248;24115;-84
2022/10/07 11:35:24;;;;;;;11.13;1.43;;;16.00;80.70;15.40;101305;;;;568810;248;24102;-84
2022/10/07 11:38:11;;;;;;;1.37;0.93;;;15.90;79.70;15.40;101291;;;;570561;248;24194;-84
2022/10/07 11:40:50;;;;;;;2.20;1.53;;;15.90;79.60;15.30;101285;;;;579394;248;24136;-83
2022/10/07 11:43:33;;;;;;;4.03;1.07;;;15.90;80.10;15.30;101276;;;;570578;248;24173;-83
2022/10/07 11:46:07;;;;;;;1.63;1.20;;;15.90;80.70;15.30;101271;;;;571102;248;24176;-84
2022/10/07 11:48:49;;;;;;;2.77;1.40;;;15.80;80.70;15.30;101266;;;;579475;245;24153;-83